createdAt,value
2019-01-31T00:01:07.970Z,20.30
2019-01-31T00:03:48.655Z,11.50
2019-01-31T00:06:29.175Z,10.73
2019-01-31T00:09:10.202Z,9.73
2019-01-31T00:11:50.588Z,9.17
2019-01-31T00:14:31.277Z,9.23
2019-01-31T00:17:12.137Z,10.20
2019-01-31T00:19:52.917Z,9.13
2019-01-31T00:22:33.230Z,9.20
2019-01-31T00:25:13.671Z,9.40
2019-01-31T00:27:54.588Z,9.83
2019-01-31T00:30:35.116Z,8.70
2019-01-31T00:33:15.496Z,9.97
2019-01-31T00:35:56.137Z,10.23
2019-01-31T00:38:36.606Z,10.57
2019-01-31T00:41:17.107Z,8.50
2019-01-31T00:43:57.844Z,9.20
2019-01-31T00:46:38.832Z,8.63
2019-01-31T00:49:19.785Z,9.20
2019-01-31T00:52:00.595Z,8.53
2019-01-31T00:54:41.039Z,8.83
2019-01-31T00:57:21.466Z,9.37
2019-01-31T01:00:02.227Z,10.67
2019-01-31T01:02:42.555Z,10.63
2019-01-31T01:05:23.290Z,10.23
2019-01-31T01:08:03.992Z,10.07
2019-01-31T01:10:44.857Z,9.33
2019-01-31T01:13:25.506Z,8.50
2019-01-31T01:16:05.792Z,8.33
2019-01-31T01:18:47.114Z,10.33
2019-01-31T01:21:27.551Z,7.47
2019-01-31T01:24:08.308Z,9.73
2019-01-31T01:26:48.897Z,8.57
2019-01-31T01:29:29.287Z,8.17
2019-01-31T01:35:01.295Z,10.10
2019-01-31T01:37:39.207Z,10.57
2019-01-31T01:40:20.092Z,11.70
2019-01-31T01:43:00.541Z,12.67
2019-01-31T01:45:41.476Z,12.73
2019-01-31T01:48:22.501Z,16.23
2019-01-31T01:51:05.567Z,16.17
2019-01-31T01:54:12.824Z,11.97
2019-01-31T01:57:19.927Z,9.73
2019-01-31T02:00:00.765Z,10.20
2019-01-31T02:02:41.351Z,11.63
2019-01-31T02:05:21.910Z,13.10
2019-01-31T02:08:02.898Z,10.07
2019-01-31T02:10:43.357Z,12.10
2019-01-31T02:13:23.797Z,8.80
2019-01-31T02:16:04.253Z,8.63
2019-01-31T02:18:45.017Z,7.80
2019-01-31T02:21:25.775Z,8.33
2019-01-31T02:24:06.561Z,6.13
2019-01-31T02:26:46.979Z,9.87
2019-01-31T02:29:27.594Z,8.40
2019-01-31T02:32:08.555Z,10.00
2019-01-31T02:34:49.131Z,10.10
2019-01-31T02:37:30.024Z,5.27
2019-01-31T02:40:10.686Z,6.10
2019-01-31T02:42:51.579Z,6.90
2019-01-31T02:45:32.394Z,8.00
2019-01-31T02:48:13.201Z,9.53
2019-01-31T02:50:53.655Z,7.87
2019-01-31T02:53:34.159Z,6.60
2019-01-31T02:56:14.867Z,8.37
2019-01-31T02:58:55.885Z,5.50
2019-01-31T03:01:36.893Z,7.10
2019-01-31T03:04:17.467Z,7.73
2019-01-31T03:06:58.510Z,9.10
2019-01-31T03:09:39.051Z,6.80
2019-01-31T03:12:19.725Z,9.37
2019-01-31T03:15:00.315Z,10.87
2019-01-31T03:17:40.895Z,8.97
2019-01-31T03:20:21.866Z,9.70
2019-01-31T03:23:02.581Z,7.80
2019-01-31T03:25:43.331Z,4.97
2019-01-31T03:28:24.109Z,8.53
2019-01-31T03:31:05.093Z,6.50
2019-01-31T03:33:45.562Z,11.53
2019-01-31T03:36:26.560Z,8.50
2019-01-31T03:39:07.250Z,10.07
2019-01-31T03:41:47.812Z,9.87
2019-01-31T03:44:28.686Z,8.73
2019-01-31T03:47:09.642Z,5.83
2019-01-31T03:49:50.517Z,5.30
2019-01-31T03:52:31.075Z,4.43
2019-01-31T03:55:11.705Z,5.70
2019-01-31T03:57:52.274Z,10.50
2019-01-31T04:00:33.017Z,11.60
2019-01-31T04:03:13.678Z,11.63
2019-01-31T04:05:54.417Z,7.67
2019-01-31T04:08:34.852Z,6.33
2019-01-31T04:11:15.620Z,6.13
2019-01-31T04:13:56.032Z,11.00
2019-01-31T04:16:37.103Z,7.03
2019-01-31T04:19:17.880Z,10.30
2019-01-31T04:21:58.601Z,10.50
2019-01-31T04:24:38.981Z,10.13
2019-01-31T04:27:19.822Z,9.23
2019-01-31T04:30:00.878Z,14.67
2019-01-31T04:32:41.350Z,9.40
2019-01-31T04:35:21.965Z,8.73
2019-01-31T04:38:02.395Z,11.87
2019-01-31T04:40:42.895Z,11.47
2019-01-31T04:43:23.819Z,9.13
2019-01-31T04:46:04.476Z,9.80
2019-01-31T04:48:45.140Z,10.00
2019-01-31T04:51:25.775Z,8.07
2019-01-31T04:54:06.141Z,10.20
2019-01-31T04:56:47.001Z,8.27
2019-01-31T04:59:28.169Z,8.73
2019-01-31T05:02:08.821Z,11.10
2019-01-31T05:04:49.524Z,8.30
2019-01-31T05:07:30.003Z,10.40
2019-01-31T05:10:10.926Z,8.37
2019-01-31T05:12:51.681Z,10.30
2019-01-31T05:15:32.597Z,8.57
2019-01-31T05:18:13.540Z,11.27
2019-01-31T05:20:54.141Z,9.30
2019-01-31T05:23:34.902Z,14.90
2019-01-31T05:26:15.599Z,13.43
2019-01-31T05:28:55.870Z,14.07
2019-01-31T05:31:36.369Z,15.73
2019-01-31T05:34:16.883Z,12.87
2019-01-31T05:36:57.741Z,16.57
2019-01-31T05:39:38.255Z,12.33
2019-01-31T05:42:18.985Z,12.87
2019-01-31T05:44:59.912Z,10.83
2019-01-31T05:47:40.459Z,12.33
2019-01-31T05:50:21.361Z,11.00
2019-01-31T05:53:02.572Z,14.67
2019-01-31T05:55:43.111Z,11.57
2019-01-31T05:58:23.755Z,14.77
2019-01-31T06:01:04.642Z,11.60
2019-01-31T06:03:45.564Z,21.93
2019-01-31T06:06:26.181Z,19.87
2019-01-31T06:09:06.615Z,13.97
2019-01-31T06:11:47.259Z,12.93
2019-01-31T06:14:27.711Z,18.00
2019-01-31T06:17:08.277Z,13.53
2019-01-31T06:19:48.610Z,13.87
2019-01-31T06:22:29.602Z,14.50
2019-01-31T06:25:10.367Z,15.77
2019-01-31T06:27:51.426Z,15.00
2019-01-31T06:30:31.979Z,16.20
2019-01-31T06:33:12.687Z,19.10
2019-01-31T06:35:53.402Z,14.17
2019-01-31T06:38:34.194Z,17.40
2019-01-31T06:41:18.824Z,13.80
2019-01-31T06:43:58.005Z,18.37
2019-01-31T06:46:38.847Z,18.70
2019-01-31T06:49:19.412Z,20.33
2019-01-31T06:52:00.010Z,17.17
2019-01-31T06:54:40.722Z,15.83
2019-01-31T06:57:21.550Z,20.67
2019-01-31T07:00:02.371Z,29.97
2019-01-31T07:02:42.998Z,16.60
2019-01-31T07:05:23.280Z,15.87
2019-01-31T07:08:04.802Z,13.93
2019-01-31T07:10:45.805Z,18.10
2019-01-31T07:13:26.282Z,17.70
2019-01-31T07:16:06.904Z,14.07
2019-01-31T07:18:47.684Z,18.50
2019-01-31T07:21:28.299Z,18.00
2019-01-31T07:24:09.217Z,15.50
2019-01-31T07:26:49.670Z,13.77
2019-01-31T07:29:30.215Z,16.53
2019-01-31T07:32:10.631Z,19.37
2019-01-31T07:34:51.321Z,20.93
2019-01-31T07:37:32.122Z,19.87
2019-01-31T07:40:13.226Z,19.13
2019-01-31T07:42:53.664Z,18.23
2019-01-31T07:45:34.642Z,17.43
2019-01-31T07:48:15.732Z,15.97
2019-01-31T07:50:56.605Z,21.27
2019-01-31T07:53:37.444Z,12.40
2019-01-31T07:56:17.850Z,14.50
2019-01-31T07:58:58.231Z,14.63
2019-01-31T08:01:40.913Z,12.90
2019-01-31T08:04:21.815Z,14.70
2019-01-31T08:07:02.445Z,16.20
2019-01-31T08:09:43.356Z,15.13
2019-01-31T08:12:24.025Z,17.40
2019-01-31T08:15:07.705Z,17.10
2019-01-31T08:17:47.599Z,17.30
2019-01-31T08:20:28.078Z,15.23
2019-01-31T08:23:08.561Z,14.07
2019-01-31T08:25:49.355Z,15.27
2019-01-31T08:28:30.180Z,15.40
2019-01-31T08:31:10.925Z,17.33
2019-01-31T08:33:51.686Z,15.47
2019-01-31T08:36:32.242Z,33.87
2019-01-31T08:39:13.040Z,13.93
2019-01-31T08:42:03.230Z,16.00
2019-01-31T08:44:35.987Z,11.80
2019-01-31T08:47:18.627Z,13.33
2019-01-31T08:49:59.211Z,15.77
2019-01-31T08:52:41.707Z,14.27
2019-01-31T08:55:22.686Z,18.33
2019-01-31T08:58:02.935Z,15.53
2019-01-31T09:00:43.286Z,14.60
2019-01-31T09:03:23.847Z,18.50
2019-01-31T09:06:04.215Z,14.40
2019-01-31T09:08:44.694Z,17.90
2019-01-31T09:11:25.296Z,24.77
2019-01-31T09:14:06.125Z,17.43
2019-01-31T09:16:46.566Z,14.77
2019-01-31T09:19:26.910Z,21.00
2019-01-31T09:22:07.557Z,17.93
2019-01-31T09:24:48.202Z,19.60
2019-01-31T09:27:28.609Z,25.90
2019-01-31T09:30:09.211Z,17.53
2019-01-31T09:32:49.985Z,18.17
2019-01-31T09:35:30.430Z,12.90
2019-01-31T09:38:11.245Z,15.63
2019-01-31T09:40:51.988Z,10.97
2019-01-31T09:43:32.757Z,9.67
2019-01-31T09:46:13.645Z,16.43
2019-01-31T09:48:54.336Z,13.27
2019-01-31T09:51:35.310Z,9.07
2019-01-31T09:54:15.805Z,11.67
2019-01-31T09:56:56.282Z,8.97
2019-01-31T09:59:36.539Z,6.53
2019-01-31T10:02:17.200Z,9.73
2019-01-31T10:04:57.899Z,8.37
2019-01-31T10:07:38.675Z,5.23
2019-01-31T10:10:19.574Z,5.30
2019-01-31T10:13:00.035Z,3.50
2019-01-31T10:15:40.912Z,3.57
2019-01-31T10:18:21.585Z,4.60
2019-01-31T10:21:02.167Z,8.83
2019-01-31T10:23:43.424Z,7.00
2019-01-31T10:26:23.820Z,5.20
2019-01-31T10:29:04.621Z,5.37
2019-01-31T10:31:45.765Z,3.57
2019-01-31T10:34:26.712Z,3.40
2019-01-31T10:37:07.649Z,5.60
2019-01-31T10:39:48.057Z,6.07
2019-01-31T10:42:29.035Z,4.43
2019-01-31T10:45:09.944Z,5.93
2019-01-31T10:47:50.637Z,4.97
2019-01-31T10:50:31.480Z,4.73
2019-01-31T10:53:12.115Z,10.40
2019-01-31T10:55:52.856Z,3.77
2019-01-31T10:58:33.806Z,7.87
2019-01-31T11:01:14.625Z,7.57
2019-01-31T11:03:55.257Z,4.60
2019-01-31T11:06:36.164Z,4.07
2019-01-31T11:09:16.838Z,4.10
2019-01-31T11:11:57.939Z,6.83
2019-01-31T11:14:38.666Z,4.57
2019-01-31T11:17:19.432Z,5.07
2019-01-31T11:19:59.981Z,4.30
2019-01-31T11:22:41.050Z,4.93
2019-01-31T11:25:21.425Z,6.83
2019-01-31T11:28:01.770Z,3.27
2019-01-31T11:30:42.291Z,3.33
2019-01-31T11:33:23.180Z,7.37
2019-01-31T11:36:04.180Z,3.30
2019-01-31T11:38:44.814Z,3.03
2019-01-31T11:41:25.733Z,2.33
2019-01-31T11:44:06.435Z,3.40
2019-01-31T11:46:47.119Z,6.33
2019-01-31T11:49:27.999Z,3.33
2019-01-31T11:52:08.787Z,3.17
2019-01-31T11:54:49.737Z,5.13
2019-01-31T11:57:30.672Z,5.80
2019-01-31T12:00:12.885Z,4.40
2019-01-31T12:02:55.177Z,3.80
2019-01-31T12:05:35.726Z,6.40
2019-01-31T12:08:15.950Z,3.13
2019-01-31T12:10:56.625Z,2.90
2019-01-31T12:13:37.280Z,5.27
2019-01-31T12:16:18.121Z,5.33
2019-01-31T12:18:58.673Z,5.63
2019-01-31T12:21:39.456Z,7.60
2019-01-31T12:24:20.112Z,5.57
2019-01-31T12:27:00.512Z,2.83
2019-01-31T12:29:41.190Z,4.63
2019-01-31T12:32:21.890Z,4.67
2019-01-31T12:35:02.526Z,3.13
2019-01-31T12:37:43.298Z,4.90
2019-01-31T12:40:24.050Z,4.47
2019-01-31T12:43:04.915Z,6.50
2019-01-31T12:45:45.708Z,3.67
2019-01-31T12:48:26.031Z,4.73
2019-01-31T12:51:06.702Z,3.97
2019-01-31T12:53:47.503Z,4.37
2019-01-31T12:56:28.432Z,5.33
2019-01-31T12:59:08.948Z,4.47
2019-01-31T13:01:49.701Z,2.63
2019-01-31T13:04:30.625Z,3.80
2019-01-31T13:07:11.404Z,4.17
2019-01-31T13:09:52.146Z,3.57
2019-01-31T13:12:33.114Z,5.33
2019-01-31T13:15:13.615Z,4.20
2019-01-31T13:17:54.313Z,2.70
2019-01-31T13:20:34.700Z,5.00
2019-01-31T13:23:15.329Z,8.40
2019-01-31T13:25:55.893Z,5.07
2019-01-31T13:28:36.271Z,5.97
2019-01-31T13:31:16.765Z,4.57
2019-01-31T13:33:57.430Z,5.40
2019-01-31T13:36:38.047Z,3.57
2019-01-31T13:39:19.345Z,5.27
2019-01-31T13:41:59.881Z,5.80
2019-01-31T13:44:40.426Z,5.83
2019-01-31T13:47:20.956Z,5.57
2019-01-31T13:50:01.391Z,4.33
2019-01-31T13:52:41.875Z,7.53
2019-01-31T13:55:22.710Z,4.73
2019-01-31T13:58:03.633Z,4.00
2019-01-31T14:00:44.021Z,6.97
2019-01-31T14:03:24.516Z,5.97
2019-01-31T14:06:05.035Z,5.20
2019-01-31T14:08:45.547Z,4.17
2019-01-31T14:11:26.074Z,4.97
2019-01-31T14:14:09.166Z,5.47
2019-01-31T14:16:49.601Z,5.30
2019-01-31T14:19:30.371Z,3.80
2019-01-31T14:22:11.104Z,4.77
2019-01-31T14:24:51.491Z,6.00
2019-01-31T14:27:32.254Z,7.13
2019-01-31T14:30:13.170Z,3.80
2019-01-31T14:32:53.931Z,5.93
2019-01-31T14:35:34.487Z,2.27
2019-01-31T14:38:15.322Z,3.60
2019-01-31T14:40:56.106Z,4.27
2019-01-31T14:43:36.886Z,3.17
2019-01-31T14:46:17.835Z,2.80
2019-01-31T14:48:58.705Z,3.90
2019-01-31T14:51:39.223Z,4.13
2019-01-31T14:54:20.109Z,1.80
2019-01-31T14:57:00.785Z,7.00
2019-01-31T14:59:41.404Z,3.93
2019-01-31T15:02:22.412Z,2.97
2019-01-31T15:05:02.958Z,5.90
2019-01-31T15:07:43.405Z,6.83
2019-01-31T15:10:24.128Z,5.63
2019-01-31T15:13:04.849Z,6.17
2019-01-31T15:15:45.545Z,4.20
2019-01-31T15:18:26.332Z,3.00
2019-01-31T15:21:07.144Z,3.23
2019-01-31T15:23:47.761Z,6.20
2019-01-31T15:26:29.149Z,4.20
2019-01-31T15:29:10.046Z,7.77
2019-01-31T15:31:50.858Z,5.87
2019-01-31T15:34:31.231Z,5.87
2019-01-31T15:37:11.917Z,3.77
2019-01-31T15:39:52.786Z,3.03
2019-01-31T15:42:33.696Z,2.27
2019-01-31T15:45:14.350Z,4.57
2019-01-31T15:47:54.849Z,4.70
2019-01-31T15:50:35.575Z,3.00
2019-01-31T15:53:16.706Z,2.97
2019-01-31T15:55:57.206Z,5.90
2019-01-31T15:58:37.684Z,2.30
2019-01-31T16:01:18.297Z,3.57
2019-01-31T16:04:00.894Z,3.30
2019-01-31T16:06:41.470Z,3.93
2019-01-31T16:09:24.133Z,7.67
2019-01-31T16:12:04.450Z,11.20
2019-01-31T16:14:54.488Z,8.90
2019-01-31T16:17:27.699Z,8.20
2019-01-31T16:20:08.215Z,5.40
2019-01-31T16:22:48.741Z,6.03
2019-01-31T16:25:29.457Z,4.40
2019-01-31T16:28:10.206Z,6.37
2019-01-31T16:30:50.957Z,6.17
2019-01-31T16:33:31.520Z,7.47
2019-01-31T16:36:12.125Z,9.17
2019-01-31T16:38:52.776Z,9.90
2019-01-31T16:41:33.672Z,7.90
2019-01-31T16:44:14.691Z,8.10
2019-01-31T16:46:55.569Z,5.17
2019-01-31T16:49:36.472Z,8.00
2019-01-31T16:52:17.387Z,5.47
2019-01-31T16:54:58.090Z,5.67
2019-01-31T16:57:38.521Z,6.27
2019-01-31T17:00:19.625Z,6.30
2019-01-31T17:03:00.429Z,9.33
2019-01-31T17:05:41.076Z,6.90
2019-01-31T17:08:21.742Z,10.13
2019-01-31T17:11:02.139Z,6.20
2019-01-31T17:13:42.630Z,7.50
2019-01-31T17:16:23.549Z,6.97
2019-01-31T17:19:04.461Z,6.13
2019-01-31T17:21:45.120Z,7.23
2019-01-31T17:24:26.146Z,7.40
2019-01-31T17:27:06.970Z,5.73
2019-01-31T17:29:47.819Z,5.83
2019-01-31T17:32:28.706Z,4.70
2019-01-31T17:35:09.669Z,7.70
2019-01-31T17:37:50.314Z,5.60
2019-01-31T17:40:30.962Z,6.80
2019-01-31T17:43:11.522Z,7.90
2019-01-31T17:45:52.410Z,7.90
2019-01-31T17:48:35.391Z,7.67
2019-01-31T17:51:17.022Z,6.87
2019-01-31T17:53:57.942Z,7.17
2019-01-31T17:56:38.544Z,7.10
2019-01-31T17:59:19.467Z,9.77
2019-01-31T18:02:00.261Z,7.87
2019-01-31T18:04:41.119Z,6.03
2019-01-31T18:07:19.855Z,4.93
2019-01-31T18:16:11.250Z,9.97
2019-01-31T18:18:58.972Z,7.03
2019-01-31T18:21:46.674Z,5.83
2019-01-31T18:24:34.386Z,6.40
2019-01-31T18:27:22.090Z,7.00
2019-01-31T18:30:29.219Z,8.40
2019-01-31T18:33:16.947Z,6.67
2019-01-31T18:36:04.673Z,7.30
2019-01-31T18:38:52.398Z,4.77
2019-01-31T18:41:40.175Z,29.27
2019-01-31T18:44:27.922Z,7.37
2019-01-31T18:47:15.697Z,5.33
2019-01-31T18:50:24.242Z,6.03
2019-01-31T18:53:11.969Z,6.80
2019-01-31T18:55:59.685Z,6.90
2019-01-31T18:58:47.414Z,6.20
2019-01-31T19:04:42.002Z,8.17
2019-01-31T19:07:29.689Z,5.37
2019-01-31T19:10:17.435Z,3.50
2019-01-31T19:13:05.210Z,8.70
2019-01-31T19:16:04.843Z,7.53
2019-01-31T19:18:44.063Z,5.07
2019-01-31T19:21:31.791Z,8.40
2019-01-31T19:24:31.107Z,5.23
2019-01-31T19:27:11.928Z,4.13
2019-01-31T19:29:53.167Z,4.90
2019-01-31T19:32:33.721Z,4.80
2019-01-31T19:35:14.866Z,6.47
2019-01-31T19:38:02.191Z,5.20
2019-01-31T19:40:37.341Z,5.10
2019-01-31T19:43:18.252Z,5.47
2019-01-31T19:45:58.792Z,6.43
2019-01-31T19:48:40.359Z,4.97
2019-01-31T19:51:21.696Z,5.10
2019-01-31T19:54:02.631Z,3.93
2019-01-31T19:56:43.544Z,4.70
2019-01-31T19:59:24.337Z,4.93
2019-01-31T20:02:05.690Z,9.47
2019-01-31T20:04:46.240Z,9.47
2019-01-31T20:07:27.337Z,8.50
2019-01-31T20:10:08.425Z,5.10
2019-01-31T20:12:49.570Z,5.70
2019-01-31T20:15:30.203Z,7.60
2019-01-31T20:18:10.967Z,7.80
2019-01-31T20:20:51.618Z,6.03
2019-01-31T20:23:32.395Z,7.23
2019-01-31T20:26:13.330Z,6.17
2019-01-31T20:28:54.275Z,6.33
2019-01-31T20:31:35.004Z,7.23
2019-01-31T20:34:15.957Z,7.23
2019-01-31T20:36:56.800Z,6.33
2019-01-31T20:39:37.772Z,8.37
2019-01-31T20:42:18.722Z,6.80
2019-01-31T20:44:59.521Z,5.73
2019-01-31T20:47:40.329Z,5.00
2019-01-31T20:50:20.751Z,5.27
2019-01-31T20:53:01.460Z,7.30
2019-01-31T20:55:41.976Z,5.73
2019-01-31T20:58:22.744Z,5.27
2019-01-31T21:01:06.016Z,8.50
2019-01-31T21:03:49.367Z,6.07
2019-01-31T21:06:28.864Z,6.07
2019-01-31T21:09:09.681Z,4.33
2019-01-31T21:11:50.182Z,6.87
2019-01-31T21:14:30.781Z,8.93
2019-01-31T21:17:11.525Z,6.63
2019-01-31T21:19:52.264Z,5.47
2019-01-31T21:22:32.988Z,4.67
2019-01-31T21:25:13.279Z,5.73
2019-01-31T21:27:53.544Z,5.77
2019-01-31T21:30:34.640Z,6.63
2019-01-31T21:33:15.424Z,7.27
2019-01-31T21:35:55.974Z,4.00
2019-01-31T21:38:36.496Z,3.13
2019-01-31T21:41:17.340Z,4.57
2019-01-31T21:43:58.009Z,5.57
2019-01-31T21:46:38.931Z,5.43
2019-01-31T21:49:19.832Z,6.40
2019-01-31T21:52:00.315Z,4.90
2019-01-31T21:54:40.691Z,4.13
2019-01-31T21:57:21.136Z,7.07
2019-01-31T22:00:02.065Z,3.93
2019-01-31T22:02:42.684Z,3.80
2019-01-31T22:05:23.171Z,5.17
2019-01-31T22:08:04.053Z,3.63
2019-01-31T22:10:44.684Z,3.50
2019-01-31T22:13:25.119Z,3.70
2019-01-31T22:16:05.572Z,2.93
2019-01-31T22:18:46.083Z,4.00
2019-01-31T22:21:27.084Z,4.40
2019-01-31T22:24:07.690Z,5.07
2019-01-31T22:26:48.469Z,5.40
2019-01-31T22:29:29.545Z,5.23
2019-01-31T22:32:10.192Z,6.13
2019-01-31T22:34:50.825Z,9.17
2019-01-31T22:37:29.542Z,9.97
2019-01-31T22:40:17.442Z,7.97
2019-01-31T22:43:05.160Z,8.07
2019-01-31T22:45:52.864Z,11.83
2019-01-31T22:48:40.604Z,7.60
2019-01-31T22:51:28.325Z,7.40
2019-01-31T22:54:16.048Z,6.67
2019-01-31T22:57:03.734Z,7.57
2019-01-31T22:59:51.529Z,8.43
2019-01-31T23:02:39.369Z,8.30
2019-01-31T23:05:27.131Z,9.13
2019-01-31T23:08:14.830Z,7.33
2019-01-31T23:11:02.549Z,4.37
2019-01-31T23:13:50.254Z,4.77
2019-01-31T23:16:38.011Z,4.70
2019-01-31T23:19:25.715Z,6.33
2019-01-31T23:22:13.428Z,7.40
2019-01-31T23:25:01.240Z,5.93
2019-01-31T23:27:49.014Z,11.97
2019-01-31T23:30:29.515Z,8.93
2019-01-31T23:33:10.445Z,5.63
2019-01-31T23:35:51.374Z,4.43
2019-01-31T23:38:32.399Z,8.27
2019-01-31T23:41:12.924Z,7.10
2019-01-31T23:43:53.581Z,9.23
2019-01-31T23:46:34.439Z,4.10
2019-01-31T23:49:14.863Z,4.27
2019-01-31T23:51:55.659Z,4.97
2019-01-31T23:54:36.501Z,4.80
2019-01-31T23:57:17.060Z,2.87
2019-01-31T23:59:57.701Z,5.10
